Oregon Trader — 9HA3880 — position and weather

sailwx.info

Track history (hours):
 
Tides and Currents Weather Stations Pressure Air Temp Water Temp Dewpoint Dewpoint Depression Visibility Wind Speed Wind Dir Waves Ship Positions

Oregon Trader

Last reported at 2018-May-19 08:52 UTC. Time now 2018-May-24 14:07 UTC.
Position N 31°13' E 029°40'.

Length 212 m; draft 11.1 m.

Type: Ship (hazmat cat A). MMSI: 256304000.

Date/timePositionNaut miles runAvg speedWind from/ knotsBaromVisibWave heightAir tempDewpointWater temp
2018-May-19 08:52N 31°13' E 029°40'0 0.0
2018-May-19 08:22N 31°13' E 029°40'  
2018-May-16 03:28N 36°27' E 014°32'917.8
2018-May-16 02:59N 36°31' E 014°22'817.8
2018-May-16 02:30N 36°35' E 014°14'917.7
2018-May-16 02:00N 36°40' E 014°04'917.5
2018-May-16 01:30N 36°45' E 013°55'917.5
2018-May-16 01:00N 36°49' E 013°46'917.7
2018-May-16 00:29N 36°54' E 013°36'1117.8
2018-May-15 23:51N 36°60' E 013°23'21118.0
2018-May-15 12:07N 38°52' E 009°36'218.4
2018-May-15 11:59N 38°53' E 009°34'918.3
2018-May-15 11:29N 38°58' E 009°24'918.2
2018-May-15 11:00N 39°03' E 009°14'815.5
2018-May-15 10:30N 39°07' E 009°06'4 7.6
2018-May-15 09:59N 39°11' E 009°06'2 4.7
2018-May-15 09:28N 39°13' E 009°04'0 0.0
2018-May-15 08:58N 39°13' E 009°04'0 0.0
2018-May-15 08:28N 39°13' E 009°04'0 0.0
2018-May-15 07:58N 39°13' E 009°04'0 0.0
2018-May-15 07:28N 39°13' E 009°04'0 0.0
2018-May-15 06:58N 39°13' E 009°04'0 0.0
2018-May-15 06:28N 39°13' E 009°04'0 0.0
2018-May-15 05:58N 39°13' E 009°04'0 0.0
2018-May-15 05:28N 39°13' E 009°04'0 0.0
2018-May-15 04:58N 39°13' E 009°04'0 0.0
2018-May-15 04:28N 39°13' E 009°04'0 0.0
2018-May-15 03:58N 39°13' E 009°04'0 0.0
2018-May-15 03:28N 39°13' E 009°04'0 0.0
2018-May-15 02:58N 39°13' E 009°04'0 0.0
2018-May-15 02:28N 39°13' E 009°04'0 0.0
2018-May-15 01:58N 39°13' E 009°04'0 0.0
2018-May-15 01:28N 39°13' E 009°04'0 0.0
2018-May-15 00:58N 39°13' E 009°04'0 0.0
2018-May-15 00:28N 39°13' E 009°04'0 0.0
2018-May-14 23:58N 39°13' E 009°04'0 0.0
2018-May-14 23:28N 39°13' E 009°04'0 0.0
2018-May-14 22:58N 39°13' E 009°04'0 0.0
2018-May-14 22:28N 39°13' E 009°04'0 0.0
2018-May-14 21:58N 39°13' E 009°04'0 0.0
2018-May-14 21:28N 39°13' E 009°04'0 0.0
2018-May-14 20:58N 39°13' E 009°04'0 0.0
2018-May-14 20:28N 39°13' E 009°04'0 0.0
2018-May-14 19:58N 39°13' E 009°04'0 0.0
2018-May-14 19:28N 39°13' E 009°04'0 0.0
2018-May-14 18:58N 39°13' E 009°04'0 0.0
2018-May-14 18:28N 39°13' E 009°04'0 0.0
2018-May-14 17:58N 39°13' E 009°04'0 0.0
2018-May-14 17:28N 39°13' E 009°04'0 0.0
2018-May-14 16:58N 39°13' E 009°04'0 0.0
2018-May-14 16:28N 39°13' E 009°04'0 0.0
2018-May-14 15:58N 39°13' E 009°04'0 0.0
2018-May-14 15:28N 39°13' E 009°04'0 0.0
2018-May-14 14:58N 39°13' E 009°04'0 0.0
2018-May-14 14:28N 39°13' E 009°04'0 0.0
2018-May-14 13:13N 39°13' E 009°04'0 0.0
2018-May-14 12:58N 39°13' E 009°04'0 0.0
2018-May-14 12:28N 39°13' E 009°04'0 0.0
2018-May-14 11:55N 39°13' E 009°04'0 0.0
2018-May-14 11:28N 39°13' E 009°04'0 0.0
2018-May-14 10:58N 39°13' E 009°04'0 0.0
2018-May-14 10:28N 39°13' E 009°04'0 0.0
2018-May-14 09:58N 39°13' E 009°04'0 0.0
2018-May-14 09:28N 39°13' E 009°04'0 0.0
2018-May-14 08:58N 39°13' E 009°04'0 0.0
2018-May-14 08:28N 39°13' E 009°04'0 0.0
2018-May-14 07:58N 39°13' E 009°04'0 0.0
2018-May-14 07:28N 39°13' E 009°04'0 0.0
2018-May-14 07:00N 39°13' E 009°04'1 1.7
2018-May-14 06:30N 39°12' E 009°05'3 6.8
2018-May-14 06:00N 39°09' E 009°06'2 3.8
2018-May-14 05:29N 39°07' E 009°08'5 9.5
2018-May-14 05:00N 39°05' E 009°13'611.9
2018-May-14 04:29N 39°01' E 009°19'23313.3
2018-May-13 11:01N 40°23' E 014°02'114.6
2018-May-13 10:58N 40°24' E 014°03'714.5
2018-May-13 10:30N 40°26' E 014°11'1914.6
2018-May-13 09:11N 40°34' E 014°34'314.7
2018-May-13 09:01N 40°35' E 014°37'4 0.2
2018-May-12 15:33N 40°36' E 014°42'011.5
2018-May-12 15:30N 40°36' E 014°42'815.5
2018-May-12 14:59N 40°33' E 014°32'918.7
2018-May-12 14:29N 40°30' E 014°21'1118.9
2018-May-12 13:55N 40°26' E 014°07'819.4
2018-May-12 13:29N 40°28' E 013°56'919.6
2018-May-12 13:00N 40°30' E 013°44'1019.4
2018-May-12 12:30N 40°32' E 013°32'1018.8
2018-May-12 12:00N 40°34' E 013°19'151 3.5
2018-May-10 16:43N 42°08' E 010°42'1716.4
2018-May-10 15:42N 42°10' E 010°20'2515.9
2018-May-10 14:05N 42°23' E 009°51'1915.7
2018-May-10 12:54N 42°42' E 009°55'716.5
2018-May-10 12:29N 42°48' E 009°58'816.1
2018-May-10 12:00N 42°56' E 009°60'816.6
2018-May-10 11:30N 43°04' E 010°03'816.6
2018-May-10 11:00N 43°12' E 010°06'816.5
2018-May-10 10:30N 43°20' E 010°09'816.5
2018-May-10 10:00N 43°28' E 010°12'510.9
2018-May-10 09:30N 43°32' E 010°16'3 5.7
2018-May-10 09:01N 43°34' E 010°18'0 0.5
2018-May-10 08:27N 43°35' E 010°18'0 0.0
2018-May-10 08:00N 43°35' E 010°18'0 0.0
2018-May-10 07:30N 43°35' E 010°18'0 0.0
2018-May-10 07:00N 43°35' E 010°18'0 0.0
2018-May-10 06:30N 43°35' E 010°18'0 0.0
2018-May-10 06:00N 43°35' E 010°18'0 0.0
2018-May-10 05:27N 43°35' E 010°18'0 0.0
2018-May-10 05:00N 43°35' E 010°18'0 0.0
2018-May-10 04:30N 43°35' E 010°18'0 0.0
2018-May-10 03:57N 43°35' E 010°18'0 0.0
2018-May-10 03:30N 43°35' E 010°18'0 0.0
2018-May-10 03:00N 43°35' E 010°18'0 0.0
2018-May-10 02:30N 43°35' E 010°18'0 0.0
2018-May-10 02:00N 43°35' E 010°18'0 0.0
2018-May-10 01:30N 43°35' E 010°18'0 0.0
2018-May-10 01:00N 43°35' E 010°18'0 0.0
2018-May-10 00:30N 43°35' E 010°18'0 0.0
2018-May-10 00:00N 43°35' E 010°18'0 0.0
2018-May-09 23:30N 43°35' E 010°18'0 0.0
2018-May-09 23:00N 43°35' E 010°18'0 0.0
2018-May-09 22:30N 43°35' E 010°18'0 0.0
2018-May-09 22:00N 43°35' E 010°18'0 0.0
2018-May-09 21:27N 43°35' E 010°18'0 0.0
2018-May-09 21:00N 43°35' E 010°18'0 0.0
2018-May-09 20:30N 43°35' E 010°18'0 0.0
2018-May-09 20:00N 43°35' E 010°18'0 0.0
2018-May-09 19:27N 43°35' E 010°18'0 0.0
2018-May-09 19:00N 43°35' E 010°18'0 0.0
2018-May-09 18:30N 43°35' E 010°18'0 0.0
2018-May-09 18:00N 43°35' E 010°18'0 0.0
2018-May-09 17:30N 43°35' E 010°18'0 0.0
2018-May-09 17:00N 43°35' E 010°18'0 0.0
2018-May-09 16:30N 43°35' E 010°18'0 0.0
2018-May-09 16:00N 43°35' E 010°18'0 0.0
2018-May-09 15:30N 43°35' E 010°18'0 0.0
2018-May-09 15:00N 43°35' E 010°18'0 0.0
2018-May-09 14:30N 43°35' E 010°18'0 0.0
2018-May-09 14:00N 43°35' E 010°18'0 0.0
2018-May-09 13:30N 43°35' E 010°18'0 0.0
2018-May-09 12:57N 43°35' E 010°18'0 0.0
2018-May-09 12:27N 43°35' E 010°18'0 0.0
2018-May-09 12:00N 43°35' E 010°18'0 0.0
2018-May-09 11:27N 43°35' E 010°18'0 0.0
2018-May-09 11:00N 43°35' E 010°18'0 0.0
2018-May-09 10:30N 43°35' E 010°18'0 0.0
2018-May-09 10:00N 43°35' E 010°18'0 0.0
2018-May-09 09:30N 43°35' E 010°18'0 0.2
2018-May-09 09:00N 43°35' E 010°18'  
Track history (hours):
 
Tides and Currents Weather Stations Pressure Air Temp Water Temp Dewpoint Dewpoint Depression Visibility Wind Speed Wind Dir Waves Ship Positions

Oregon Trader

Last reported at 2018-May-19 08:52 UTC. Time now 2018-May-24 14:07 UTC.
Position N 31°13' E 029°40'.

Length 212 m; draft 11.1 m.

Type: Ship (hazmat cat A). MMSI: 256304000.

Date/timePositionNaut miles runAvg speedWind from/ knotsBaromVisibWave heightAir tempDewpointWater temp
2018-May-19 08:52N 31°13' E 029°40'0 0.0
2018-May-19 08:22N 31°13' E 029°40'  
2018-May-16 03:28N 36°27' E 014°32'917.8
2018-May-16 02:59N 36°31' E 014°22'817.8
2018-May-16 02:30N 36°35' E 014°14'917.7
2018-May-16 02:00N 36°40' E 014°04'917.5
2018-May-16 01:30N 36°45' E 013°55'917.5
2018-May-16 01:00N 36°49' E 013°46'917.7
2018-May-16 00:29N 36°54' E 013°36'1117.8
2018-May-15 23:51N 36°60' E 013°23'21118.0
2018-May-15 12:07N 38°52' E 009°36'218.4
2018-May-15 11:59N 38°53' E 009°34'918.3
2018-May-15 11:29N 38°58' E 009°24'918.2
2018-May-15 11:00N 39°03' E 009°14'815.5
2018-May-15 10:30N 39°07' E 009°06'4 7.6
2018-May-15 09:59N 39°11' E 009°06'2 4.7
2018-May-15 09:28N 39°13' E 009°04'0 0.0
2018-May-15 08:58N 39°13' E 009°04'0 0.0
2018-May-15 08:28N 39°13' E 009°04'0 0.0
2018-May-15 07:58N 39°13' E 009°04'0 0.0
2018-May-15 07:28N 39°13' E 009°04'0 0.0
2018-May-15 06:58N 39°13' E 009°04'0 0.0
2018-May-15 06:28N 39°13' E 009°04'0 0.0
2018-May-15 05:58N 39°13' E 009°04'0 0.0
2018-May-15 05:28N 39°13' E 009°04'0 0.0
2018-May-15 04:58N 39°13' E 009°04'0 0.0
2018-May-15 04:28N 39°13' E 009°04'0 0.0
2018-May-15 03:58N 39°13' E 009°04'0 0.0
2018-May-15 03:28N 39°13' E 009°04'0 0.0
2018-May-15 02:58N 39°13' E 009°04'0 0.0
2018-May-15 02:28N 39°13' E 009°04'0 0.0
2018-May-15 01:58N 39°13' E 009°04'0 0.0
2018-May-15 01:28N 39°13' E 009°04'0 0.0
2018-May-15 00:58N 39°13' E 009°04'0 0.0
2018-May-15 00:28N 39°13' E 009°04'0 0.0
2018-May-14 23:58N 39°13' E 009°04'0 0.0
2018-May-14 23:28N 39°13' E 009°04'0 0.0
2018-May-14 22:58N 39°13' E 009°04'0 0.0
2018-May-14 22:28N 39°13' E 009°04'0 0.0
2018-May-14 21:58N 39°13' E 009°04'0 0.0
2018-May-14 21:28N 39°13' E 009°04'0 0.0
2018-May-14 20:58N 39°13' E 009°04'0 0.0
2018-May-14 20:28N 39°13' E 009°04'0 0.0
2018-May-14 19:58N 39°13' E 009°04'0 0.0
2018-May-14 19:28N 39°13' E 009°04'0 0.0
2018-May-14 18:58N 39°13' E 009°04'0 0.0
2018-May-14 18:28N 39°13' E 009°04'0 0.0
2018-May-14 17:58N 39°13' E 009°04'0 0.0
2018-May-14 17:28N 39°13' E 009°04'0 0.0
2018-May-14 16:58N 39°13' E 009°04'0 0.0
2018-May-14 16:28N 39°13' E 009°04'0 0.0
2018-May-14 15:58N 39°13' E 009°04'0 0.0
2018-May-14 15:28N 39°13' E 009°04'0 0.0
2018-May-14 14:58N 39°13' E 009°04'0 0.0
2018-May-14 14:28N 39°13' E 009°04'0 0.0
2018-May-14 13:13N 39°13' E 009°04'0 0.0
2018-May-14 12:58N 39°13' E 009°04'0 0.0
2018-May-14 12:28N 39°13' E 009°04'0 0.0
2018-May-14 11:55N 39°13' E 009°04'0 0.0
2018-May-14 11:28N 39°13' E 009°04'0 0.0
2018-May-14 10:58N 39°13' E 009°04'0 0.0
2018-May-14 10:28N 39°13' E 009°04'0 0.0
2018-May-14 09:58N 39°13' E 009°04'0 0.0
2018-May-14 09:28N 39°13' E 009°04'0 0.0
2018-May-14 08:58N 39°13' E 009°04'0 0.0
2018-May-14 08:28N 39°13' E 009°04'0 0.0
2018-May-14 07:58N 39°13' E 009°04'0 0.0
2018-May-14 07:28N 39°13' E 009°04'0 0.0
2018-May-14 07:00N 39°13' E 009°04'1 1.7
2018-May-14 06:30N 39°12' E 009°05'3 6.8
2018-May-14 06:00N 39°09' E 009°06'2 3.8
2018-May-14 05:29N 39°07' E 009°08'5 9.5
2018-May-14 05:00N 39°05' E 009°13'611.9
2018-May-14 04:29N 39°01' E 009°19'23313.3
2018-May-13 11:01N 40°23' E 014°02'114.6
2018-May-13 10:58N 40°24' E 014°03'714.5
2018-May-13 10:30N 40°26' E 014°11'1914.6
2018-May-13 09:11N 40°34' E 014°34'314.7
2018-May-13 09:01N 40°35' E 014°37'4 0.2
2018-May-12 15:33N 40°36' E 014°42'011.5
2018-May-12 15:30N 40°36' E 014°42'815.5
2018-May-12 14:59N 40°33' E 014°32'918.7
2018-May-12 14:29N 40°30' E 014°21'1118.9
2018-May-12 13:55N 40°26' E 014°07'819.4
2018-May-12 13:29N 40°28' E 013°56'919.6
2018-May-12 13:00N 40°30' E 013°44'1019.4
2018-May-12 12:30N 40°32' E 013°32'1018.8
2018-May-12 12:00N 40°34' E 013°19'151 3.5
2018-May-10 16:43N 42°08' E 010°42'1716.4
2018-May-10 15:42N 42°10' E 010°20'2515.9
2018-May-10 14:05N 42°23' E 009°51'1915.7
2018-May-10 12:54N 42°42' E 009°55'716.5
2018-May-10 12:29N 42°48' E 009°58'816.1
2018-May-10 12:00N 42°56' E 009°60'816.6
2018-May-10 11:30N 43°04' E 010°03'816.6
2018-May-10 11:00N 43°12' E 010°06'816.5
2018-May-10 10:30N 43°20' E 010°09'816.5
2018-May-10 10:00N 43°28' E 010°12'510.9
2018-May-10 09:30N 43°32' E 010°16'3 5.7
2018-May-10 09:01N 43°34' E 010°18'0 0.5
2018-May-10 08:27N 43°35' E 010°18'0 0.0
2018-May-10 08:00N 43°35' E 010°18'0 0.0
2018-May-10 07:30N 43°35' E 010°18'0 0.0
2018-May-10 07:00N 43°35' E 010°18'0 0.0
2018-May-10 06:30N 43°35' E 010°18'0 0.0
2018-May-10 06:00N 43°35' E 010°18'0 0.0
2018-May-10 05:27N 43°35' E 010°18'0 0.0
2018-May-10 05:00N 43°35' E 010°18'0 0.0
2018-May-10 04:30N 43°35' E 010°18'0 0.0
2018-May-10 03:57N 43°35' E 010°18'0 0.0
2018-May-10 03:30N 43°35' E 010°18'0 0.0
2018-May-10 03:00N 43°35' E 010°18'0 0.0
2018-May-10 02:30N 43°35' E 010°18'0 0.0
2018-May-10 02:00N 43°35' E 010°18'0 0.0
2018-May-10 01:30N 43°35' E 010°18'0 0.0
2018-May-10 01:00N 43°35' E 010°18'0 0.0
2018-May-10 00:30N 43°35' E 010°18'0 0.0
2018-May-10 00:00N 43°35' E 010°18'0 0.0
2018-May-09 23:30N 43°35' E 010°18'0 0.0
2018-May-09 23:00N 43°35' E 010°18'0 0.0
2018-May-09 22:30N 43°35' E 010°18'0 0.0
2018-May-09 22:00N 43°35' E 010°18'0 0.0
2018-May-09 21:27N 43°35' E 010°18'0 0.0
2018-May-09 21:00N 43°35' E 010°18'0 0.0
2018-May-09 20:30N 43°35' E 010°18'0 0.0
2018-May-09 20:00N 43°35' E 010°18'0 0.0
2018-May-09 19:27N 43°35' E 010°18'0 0.0
2018-May-09 19:00N 43°35' E 010°18'0 0.0
2018-May-09 18:30N 43°35' E 010°18'0 0.0
2018-May-09 18:00N 43°35' E 010°18'0 0.0
2018-May-09 17:30N 43°35' E 010°18'0 0.0
2018-May-09 17:00N 43°35' E 010°18'0 0.0
2018-May-09 16:30N 43°35' E 010°18'0 0.0
2018-May-09 16:00N 43°35' E 010°18'0 0.0
2018-May-09 15:30N 43°35' E 010°18'0 0.0
2018-May-09 15:00N 43°35' E 010°18'0 0.0
2018-May-09 14:30N 43°35' E 010°18'0 0.0
2018-May-09 14:00N 43°35' E 010°18'0 0.0
2018-May-09 13:30N 43°35' E 010°18'0 0.0
2018-May-09 12:57N 43°35' E 010°18'0 0.0
2018-May-09 12:27N 43°35' E 010°18'0 0.0
2018-May-09 12:00N 43°35' E 010°18'0 0.0
2018-May-09 11:27N 43°35' E 010°18'0 0.0
2018-May-09 11:00N 43°35' E 010°18'0 0.0
2018-May-09 10:30N 43°35' E 010°18'0 0.0
2018-May-09 10:00N 43°35' E 010°18'0 0.0
2018-May-09 09:30N 43°35' E 010°18'0 0.2
2018-May-09 09:00N 43°35' E 010°18'  

Dump ship's entire track history